createdAt,value
2022-08-26T00:01:52.817Z,20.90
2022-08-26T00:04:23.558Z,20.90
2022-08-26T00:06:50.716Z,20.90
2022-08-26T00:09:17.873Z,21.00
2022-08-26T00:11:45.637Z,20.90
2022-08-26T00:14:13.736Z,20.80
2022-08-26T00:16:47.616Z,20.90
2022-08-26T00:19:20.965Z,20.80
2022-08-26T00:21:50.029Z,20.90
2022-08-26T00:24:23.992Z,20.90
2022-08-26T00:26:51.594Z,20.90
2022-08-26T00:29:19.856Z,20.80
2022-08-26T00:31:48.279Z,20.80
2022-08-26T00:34:16.586Z,20.80
2022-08-26T00:36:46.328Z,20.80
2022-08-26T00:39:13.079Z,20.70
2022-08-26T00:41:41.192Z,20.80
2022-08-26T00:44:11.000Z,20.80
2022-08-26T00:46:44.992Z,20.80
2022-08-26T00:49:33.965Z,20.90
2022-08-26T00:52:05.834Z,20.90
2022-08-26T00:54:45.225Z,20.80
2022-08-26T00:57:19.559Z,20.80
2022-08-26T00:59:52.991Z,20.80
2022-08-26T01:02:21.581Z,20.80
2022-08-26T01:04:55.521Z,20.70
2022-08-26T01:07:30.191Z,20.80
2022-08-26T01:10:01.839Z,20.70
2022-08-26T01:12:36.480Z,20.70
2022-08-26T01:15:09.729Z,20.70
2022-08-26T01:17:41.794Z,20.70
2022-08-26T01:21:00.207Z,20.60
2022-08-26T01:23:34.728Z,20.70
2022-08-26T01:26:39.217Z,20.70
2022-08-26T01:29:12.771Z,20.80
2022-08-26T01:31:55.157Z,20.70
2022-08-26T01:34:30.434Z,20.70
2022-08-26T01:37:15.987Z,20.60
2022-08-26T01:39:47.294Z,20.70
2022-08-26T01:42:17.156Z,20.60
2022-08-26T01:45:06.835Z,20.60
2022-08-26T01:47:37.749Z,20.50
2022-08-26T01:50:18.059Z,20.60
2022-08-26T01:52:58.055Z,20.60
2022-08-26T01:55:27.642Z,20.50
2022-08-26T01:58:04.709Z,20.50
2022-08-26T02:00:34.417Z,20.50
2022-08-26T02:03:18.237Z,20.50
2022-08-26T02:05:57.538Z,20.50
2022-08-26T02:08:44.598Z,20.50
2022-08-26T02:11:13.557Z,20.50
2022-08-26T02:13:50.469Z,20.40
2022-08-26T02:16:22.374Z,20.50
2022-08-26T02:18:53.908Z,20.50
2022-08-26T02:21:22.796Z,20.60
2022-08-26T02:23:52.717Z,20.50
2022-08-26T02:26:27.196Z,20.50
2022-08-26T02:29:11.408Z,20.40
2022-08-26T02:31:38.377Z,20.40
2022-08-26T02:34:16.653Z,20.40
2022-08-26T02:36:43.635Z,20.50
2022-08-26T02:39:11.664Z,20.30
2022-08-26T02:41:44.803Z,20.30
2022-08-26T02:44:12.220Z,20.30
2022-08-26T02:46:39.491Z,20.30
2022-08-26T02:49:07.033Z,20.30
2022-08-26T02:51:34.024Z,20.20
2022-08-26T02:54:01.545Z,20.20
2022-08-26T02:56:29.349Z,20.20
2022-08-26T02:58:56.396Z,20.20
2022-08-26T03:01:27.493Z,20.20
2022-08-26T03:03:56.094Z,20.10
2022-08-26T03:06:24.731Z,20.20
2022-08-26T03:08:53.625Z,20.20
2022-08-26T03:11:20.652Z,20.20
2022-08-26T03:13:50.883Z,20.10
2022-08-26T03:16:18.886Z,20.10
2022-08-26T03:18:47.020Z,20.10
2022-08-26T03:21:21.209Z,20.10
2022-08-26T03:23:48.127Z,20.10
2022-08-26T03:26:17.345Z,20.10
2022-08-26T03:29:02.579Z,20.00
2022-08-26T03:31:31.218Z,20.10
2022-08-26T03:33:59.760Z,20.00
2022-08-26T03:36:27.410Z,20.00
2022-08-26T03:38:54.362Z,20.10
2022-08-26T03:41:21.929Z,20.10
2022-08-26T03:43:50.650Z,20.10
2022-08-26T03:46:19.578Z,20.10
2022-08-26T03:48:46.872Z,20.10
2022-08-26T03:51:19.059Z,20.00
2022-08-26T03:53:48.041Z,20.10
2022-08-26T03:56:15.237Z,20.00
2022-08-26T03:58:44.268Z,20.10
2022-08-26T04:01:14.016Z,20.10
2022-08-26T04:03:58.222Z,20.10
2022-08-26T04:06:31.932Z,20.00
2022-08-26T04:09:05.173Z,20.00
2022-08-26T04:11:38.248Z,20.10
2022-08-26T04:14:14.124Z,19.90
2022-08-26T04:16:47.981Z,20.00
2022-08-26T04:19:16.803Z,20.00
2022-08-26T04:21:49.764Z,20.10
2022-08-26T04:24:17.598Z,20.10
2022-08-26T04:26:44.906Z,20.00
2022-08-26T04:29:23.295Z,20.00
2022-08-26T04:31:50.623Z,20.00
2022-08-26T04:34:29.070Z,19.90
2022-08-26T04:36:57.671Z,19.90
2022-08-26T04:39:25.253Z,19.90
2022-08-26T04:41:57.673Z,19.90
2022-08-26T04:44:28.200Z,19.90
2022-08-26T04:46:56.379Z,19.80
2022-08-26T04:49:23.305Z,19.80
2022-08-26T04:51:53.492Z,19.90
2022-08-26T04:54:20.506Z,20.00
2022-08-26T04:56:49.507Z,20.00
2022-08-26T04:59:18.410Z,20.00
2022-08-26T05:01:53.181Z,20.00
2022-08-26T05:04:21.133Z,20.10
2022-08-26T05:06:49.759Z,20.00
2022-08-26T05:09:18.443Z,20.00
2022-08-26T05:11:48.348Z,19.90
2022-08-26T05:14:19.331Z,19.90
2022-08-26T05:16:47.899Z,20.00
2022-08-26T05:19:18.904Z,19.90
2022-08-26T05:21:48.281Z,19.90
2022-08-26T05:24:17.302Z,19.90
2022-08-26T05:26:45.179Z,20.00
2022-08-26T05:29:13.050Z,19.90
2022-08-26T05:31:43.104Z,19.90
2022-08-26T05:34:10.105Z,20.00
2022-08-26T05:36:37.168Z,19.90
2022-08-26T05:39:07.190Z,19.90
2022-08-26T05:41:38.758Z,19.80
2022-08-26T05:44:12.662Z,19.80
2022-08-26T05:46:42.290Z,19.80
2022-08-26T05:49:15.995Z,19.80
2022-08-26T05:51:47.487Z,19.90
2022-08-26T05:54:22.022Z,19.80
2022-08-26T05:56:50.915Z,19.80
2022-08-26T05:59:24.130Z,19.80
2022-08-26T06:01:55.249Z,19.80
2022-08-26T06:04:27.073Z,19.90
2022-08-26T06:06:55.199Z,20.00
2022-08-26T06:09:22.060Z,20.10
2022-08-26T06:11:50.773Z,20.30
2022-08-26T06:14:17.959Z,20.20
2022-08-26T06:16:46.071Z,20.20
2022-08-26T06:19:15.521Z,20.30
2022-08-26T06:21:47.361Z,20.20
2022-08-26T06:24:39.569Z,20.30
2022-08-26T06:27:11.292Z,20.30
2022-08-26T06:29:38.344Z,20.30
2022-08-26T06:32:05.653Z,20.30
2022-08-26T06:34:33.788Z,20.30
2022-08-26T06:37:05.932Z,20.50
2022-08-26T06:39:33.987Z,20.50
2022-08-26T06:42:02.762Z,20.50
2022-08-26T06:44:30.546Z,20.50
2022-08-26T06:46:59.110Z,20.40
2022-08-26T06:49:27.479Z,20.30
2022-08-26T06:51:58.256Z,20.30
2022-08-26T06:54:26.454Z,20.40
2022-08-26T06:56:53.678Z,20.40
2022-08-26T06:59:27.441Z,20.40
2022-08-26T07:01:55.365Z,20.40
2022-08-26T07:04:24.441Z,20.40
2022-08-26T07:06:53.605Z,20.30
2022-08-26T07:09:23.828Z,20.30
2022-08-26T07:11:52.305Z,20.30
2022-08-26T07:14:21.481Z,20.30
2022-08-26T07:16:50.251Z,20.20
2022-08-26T07:19:30.104Z,20.10
2022-08-26T07:22:04.302Z,20.10
2022-08-26T07:24:38.360Z,20.10
2022-08-26T07:27:11.518Z,20.10
2022-08-26T07:29:39.886Z,20.20
2022-08-26T07:32:13.088Z,20.30
2022-08-26T07:34:48.321Z,20.20
2022-08-26T07:37:15.468Z,20.30
2022-08-26T07:39:45.098Z,20.20
2022-08-26T07:42:17.006Z,20.30
2022-08-26T07:44:46.052Z,20.40
2022-08-26T07:47:26.125Z,20.30
2022-08-26T07:49:55.737Z,20.40
2022-08-26T07:52:27.384Z,20.30
2022-08-26T07:55:01.250Z,20.30
2022-08-26T07:57:30.300Z,20.40
2022-08-26T07:59:58.209Z,20.40
2022-08-26T08:02:29.132Z,20.30
2022-08-26T08:04:58.372Z,20.40
2022-08-26T08:07:44.338Z,20.40
2022-08-26T08:10:25.141Z,20.40
2022-08-26T08:12:53.115Z,20.40
2022-08-26T08:15:26.823Z,20.50
2022-08-26T08:17:57.620Z,20.40
2022-08-26T08:20:27.248Z,20.30
2022-08-26T08:22:55.770Z,20.40
2022-08-26T08:25:23.284Z,20.40
2022-08-26T08:27:50.660Z,20.50
2022-08-26T08:30:22.917Z,20.50
2022-08-26T08:32:51.458Z,20.60
2022-08-26T08:35:23.958Z,20.60
2022-08-26T08:37:54.371Z,20.50
2022-08-26T08:40:24.955Z,20.50
2022-08-26T08:43:15.849Z,20.60
2022-08-26T08:45:47.340Z,20.50
2022-08-26T08:48:33.266Z,20.50
2022-08-26T08:51:48.072Z,20.50
2022-08-26T08:54:15.209Z,20.50
2022-08-26T08:56:55.447Z,20.40
2022-08-26T08:59:32.351Z,20.60
2022-08-26T09:02:23.160Z,20.60
2022-08-26T09:05:07.362Z,20.80
2022-08-26T09:07:50.852Z,20.70
2022-08-26T09:10:32.375Z,20.70
2022-08-26T09:13:02.561Z,20.80
2022-08-26T09:16:19.199Z,20.70
2022-08-26T09:19:21.080Z,20.80
2022-08-26T09:22:00.174Z,20.80
2022-08-26T09:24:30.087Z,20.70
2022-08-26T09:27:03.485Z,20.90
2022-08-26T09:29:44.202Z,20.90
2022-08-26T09:32:25.093Z,20.80
2022-08-26T09:35:08.737Z,20.90
2022-08-26T09:40:36.510Z,21.00
2022-08-26T09:43:22.347Z,21.00
2022-08-26T09:46:13.995Z,21.10
2022-08-26T09:48:42.895Z,21.00
2022-08-26T09:51:32.023Z,21.10
2022-08-26T09:54:02.609Z,21.10
2022-08-26T09:56:35.943Z,20.90
2022-08-26T09:59:06.498Z,21.00
2022-08-26T10:01:42.106Z,21.10
2022-08-26T10:04:14.573Z,21.10
2022-08-26T10:06:55.328Z,21.00
2022-08-26T10:09:25.458Z,20.90
2022-08-26T10:11:58.608Z,21.00
2022-08-26T10:17:33.938Z,21.00
2022-08-26T10:20:36.245Z,20.70
2022-08-26T10:23:14.816Z,20.60
2022-08-26T10:26:14.468Z,20.60
2022-08-26T10:29:20.433Z,20.70
2022-08-26T10:32:14.698Z,20.60
2022-08-26T10:34:43.118Z,20.80
2022-08-26T10:37:27.590Z,20.80
2022-08-26T10:40:20.231Z,20.80
2022-08-26T10:43:11.407Z,20.80
2022-08-26T10:45:50.143Z,20.90
2022-08-26T10:48:38.944Z,21.00
2022-08-26T10:51:06.609Z,21.00
2022-08-26T10:54:13.866Z,21.00
2022-08-26T10:57:39.271Z,20.90
2022-08-26T11:00:52.211Z,20.90
2022-08-26T11:03:43.925Z,21.00
2022-08-26T11:06:24.440Z,21.10
2022-08-26T11:09:01.176Z,21.10
2022-08-26T11:11:40.020Z,21.10
2022-08-26T11:14:29.290Z,21.30
2022-08-26T11:17:12.465Z,21.30
2022-08-26T11:19:59.507Z,21.30
2022-08-26T11:22:47.548Z,21.20
2022-08-26T11:25:18.233Z,21.30
2022-08-26T11:27:55.412Z,21.20
2022-08-26T11:30:25.037Z,21.20
2022-08-26T11:32:58.544Z,21.20
2022-08-26T11:35:34.615Z,21.10
2022-08-26T11:38:18.480Z,21.20
2022-08-26T11:41:17.324Z,21.30
2022-08-26T11:43:45.695Z,21.20
2022-08-26T11:46:24.317Z,21.20
2022-08-26T11:49:02.816Z,21.10
2022-08-26T11:51:35.888Z,21.10
2022-08-26T11:54:35.136Z,21.20
2022-08-26T11:57:11.810Z,21.30
2022-08-26T11:59:42.259Z,21.40
2022-08-26T12:02:17.864Z,21.20
2022-08-26T12:04:51.614Z,21.20
2022-08-26T12:07:28.560Z,21.30
2022-08-26T12:10:02.313Z,21.40
2022-08-26T12:12:38.571Z,21.30
2022-08-26T12:15:21.878Z,21.30
2022-08-26T12:17:54.539Z,21.30
2022-08-26T12:20:55.857Z,21.10
2022-08-26T12:23:40.055Z,21.00
2022-08-26T12:26:29.524Z,21.10
2022-08-26T12:29:10.022Z,21.10
2022-08-26T12:31:48.422Z,21.10
2022-08-26T12:34:18.013Z,21.20
2022-08-26T12:36:50.693Z,21.30
2022-08-26T12:39:34.133Z,21.50
2022-08-26T12:42:12.472Z,21.50
2022-08-26T12:45:06.401Z,21.50
2022-08-26T12:47:54.665Z,21.40
2022-08-26T12:50:35.680Z,21.40
2022-08-26T12:53:28.719Z,21.50
2022-08-26T12:56:18.694Z,21.40
2022-08-26T12:59:24.485Z,21.30
2022-08-26T13:01:53.411Z,21.60
2022-08-26T13:04:43.503Z,21.60
2022-08-26T13:07:41.048Z,21.50
2022-08-26T13:10:07.820Z,21.50
2022-08-26T13:12:37.301Z,21.50
2022-08-26T13:15:07.159Z,21.50
2022-08-26T13:17:35.858Z,21.60
2022-08-26T13:20:06.317Z,21.50
2022-08-26T13:22:33.744Z,21.60
2022-08-26T13:25:00.667Z,21.60
2022-08-26T13:27:28.136Z,21.40
2022-08-26T13:29:57.641Z,21.50
2022-08-26T13:32:27.383Z,21.40
2022-08-26T13:34:56.910Z,21.30
2022-08-26T13:37:34.547Z,21.30
2022-08-26T13:40:07.274Z,21.40
2022-08-26T13:42:34.646Z,21.30
2022-08-26T13:45:02.311Z,21.30
2022-08-26T13:47:29.149Z,21.20
2022-08-26T13:49:56.302Z,21.20
2022-08-26T13:52:25.530Z,21.30
2022-08-26T13:54:57.174Z,21.30
2022-08-26T13:57:24.812Z,21.20
2022-08-26T13:59:53.844Z,21.20
2022-08-26T14:02:20.581Z,21.30
2022-08-26T14:04:47.352Z,21.20
2022-08-26T14:07:14.446Z,21.10
2022-08-26T14:09:41.152Z,21.00
2022-08-26T14:12:08.312Z,21.10
2022-08-26T14:14:35.045Z,21.10
2022-08-26T14:17:02.020Z,21.10
2022-08-26T14:19:30.351Z,21.00
2022-08-26T14:21:57.418Z,21.20
2022-08-26T14:24:24.138Z,21.10
2022-08-26T14:26:50.913Z,21.10
2022-08-26T14:29:20.325Z,21.10
2022-08-26T14:31:47.171Z,21.10
2022-08-26T14:34:14.386Z,20.90
2022-08-26T14:36:41.327Z,21.00
2022-08-26T14:39:13.315Z,21.10
2022-08-26T14:41:55.502Z,21.00
2022-08-26T14:44:28.246Z,21.00
2022-08-26T14:46:56.244Z,21.00
2022-08-26T14:49:24.445Z,21.00
2022-08-26T14:51:54.878Z,21.00
2022-08-26T14:54:21.655Z,21.00
2022-08-26T14:57:04.183Z,21.00
2022-08-26T14:59:36.109Z,21.00
2022-08-26T15:02:05.186Z,21.00
2022-08-26T15:04:32.231Z,21.00
2022-08-26T15:07:00.941Z,21.00
2022-08-26T15:09:30.309Z,20.90
2022-08-26T15:11:57.263Z,21.00
2022-08-26T15:14:26.057Z,21.20
2022-08-26T15:16:57.264Z,21.30
2022-08-26T15:19:27.613Z,21.20
2022-08-26T15:21:57.087Z,21.30
2022-08-26T15:24:26.145Z,21.20
2022-08-26T15:26:53.869Z,21.30
2022-08-26T15:29:23.694Z,21.20
2022-08-26T15:31:50.612Z,21.10
2022-08-26T15:34:17.553Z,21.10
2022-08-26T15:36:46.927Z,21.00
2022-08-26T15:39:17.056Z,21.00
2022-08-26T15:41:44.384Z,21.00
2022-08-26T15:44:14.083Z,21.10
2022-08-26T15:46:42.025Z,21.10
2022-08-26T15:49:09.447Z,20.90
2022-08-26T15:51:46.346Z,21.10
2022-08-26T15:54:16.556Z,21.10
2022-08-26T15:56:44.062Z,21.00
2022-08-26T15:59:11.454Z,21.00
2022-08-26T16:01:39.264Z,21.00
2022-08-26T16:04:06.538Z,20.90
2022-08-26T16:06:37.172Z,20.90
2022-08-26T16:09:05.828Z,21.00
2022-08-26T16:11:35.842Z,21.10
2022-08-26T16:14:04.624Z,21.00
2022-08-26T16:16:32.137Z,21.00
2022-08-26T16:19:00.585Z,21.00
2022-08-26T16:21:30.426Z,21.10
2022-08-26T16:23:58.747Z,21.20
2022-08-26T16:26:32.722Z,21.20
2022-08-26T16:29:01.897Z,21.10
2022-08-26T16:31:28.686Z,21.20
2022-08-26T16:33:55.809Z,21.10
2022-08-26T16:36:22.522Z,21.20
2022-08-26T16:38:56.693Z,21.10
2022-08-26T16:41:27.523Z,21.10
2022-08-26T16:43:55.568Z,21.10
2022-08-26T16:46:26.711Z,21.00
2022-08-26T16:48:57.085Z,21.00
2022-08-26T16:51:29.374Z,21.00
2022-08-26T16:53:57.643Z,20.90
2022-08-26T16:56:33.541Z,20.90
2022-08-26T16:59:12.098Z,20.90
2022-08-26T17:01:38.958Z,21.00
2022-08-26T17:04:05.899Z,21.00
2022-08-26T17:06:33.987Z,21.00
2022-08-26T17:09:00.892Z,21.00
2022-08-26T17:11:27.770Z,20.90
2022-08-26T17:13:54.538Z,20.80
2022-08-26T17:16:26.479Z,20.70
2022-08-26T17:18:58.752Z,20.70
2022-08-26T17:21:29.079Z,20.80
2022-08-26T17:23:56.348Z,20.80
2022-08-26T17:26:23.627Z,20.90
2022-08-26T17:28:50.653Z,20.70
2022-08-26T17:31:18.083Z,20.70
2022-08-26T17:33:50.309Z,20.70
2022-08-26T17:36:22.888Z,20.60
2022-08-26T17:38:54.791Z,20.70
2022-08-26T17:41:22.242Z,20.60
2022-08-26T17:43:50.416Z,20.60
2022-08-26T17:46:17.222Z,20.60
2022-08-26T17:48:44.111Z,20.70
2022-08-26T17:51:19.055Z,20.70
2022-08-26T17:53:47.794Z,20.70
2022-08-26T17:56:18.891Z,20.80
2022-08-26T17:58:51.010Z,20.80
2022-08-26T18:01:20.834Z,20.80
2022-08-26T18:03:48.569Z,20.80
2022-08-26T18:06:15.428Z,20.80
2022-08-26T18:08:42.334Z,20.80
2022-08-26T18:11:21.479Z,20.90
2022-08-26T18:13:48.535Z,20.90
2022-08-26T18:16:18.263Z,20.80
2022-08-26T18:18:46.771Z,20.70
2022-08-26T18:21:24.144Z,20.70
2022-08-26T18:23:53.504Z,20.80
2022-08-26T18:26:28.504Z,20.60
2022-08-26T18:28:56.069Z,20.60
2022-08-26T18:31:23.425Z,20.60
2022-08-26T18:33:50.426Z,20.60
2022-08-26T18:36:27.825Z,20.50
2022-08-26T18:38:55.816Z,20.50
2022-08-26T18:41:25.888Z,20.50
2022-08-26T18:43:54.288Z,20.40
2022-08-26T18:46:24.992Z,20.50
2022-08-26T18:48:53.559Z,20.50
2022-08-26T18:51:29.869Z,20.50
2022-08-26T18:53:57.569Z,20.40
2022-08-26T18:56:24.812Z,20.30
2022-08-26T18:58:54.003Z,20.30
2022-08-26T19:01:25.516Z,20.30
2022-08-26T19:03:55.444Z,20.30
2022-08-26T19:06:27.889Z,20.20
2022-08-26T19:08:55.718Z,20.20
2022-08-26T19:11:31.380Z,20.20
2022-08-26T19:14:01.579Z,20.20
2022-08-26T19:16:32.379Z,20.20
2022-08-26T19:19:02.673Z,20.20
2022-08-26T19:21:33.074Z,20.20
2022-08-26T19:24:03.725Z,20.10
2022-08-26T19:26:31.894Z,20.20
2022-08-26T19:28:59.364Z,20.10
2022-08-26T19:31:27.047Z,20.20
2022-08-26T19:33:54.059Z,20.20
2022-08-26T19:36:25.422Z,20.10
2022-08-26T19:38:56.348Z,20.10
2022-08-26T19:41:36.565Z,20.10
2022-08-26T19:44:43.122Z,20.10
2022-08-26T19:47:12.011Z,20.00
2022-08-26T19:49:38.869Z,20.00
2022-08-26T19:52:06.081Z,19.90
2022-08-26T19:54:34.061Z,19.90
2022-08-26T19:57:00.967Z,19.80
2022-08-26T19:59:28.936Z,19.70
2022-08-26T20:02:01.052Z,19.60
2022-08-26T20:04:30.882Z,19.50
2022-08-26T20:07:00.387Z,19.50
2022-08-26T20:09:29.431Z,19.50
2022-08-26T20:11:56.971Z,19.50
2022-08-26T20:14:26.284Z,19.50
2022-08-26T20:16:53.847Z,19.40
2022-08-26T20:19:39.173Z,19.20
2022-08-26T20:22:07.619Z,19.10
2022-08-26T20:24:37.749Z,19.00
2022-08-26T20:27:07.918Z,18.90
2022-08-26T20:29:36.889Z,18.70
2022-08-26T20:32:07.207Z,18.70
2022-08-26T20:34:35.971Z,18.70
2022-08-26T20:37:04.038Z,18.70
2022-08-26T20:39:30.920Z,18.60
2022-08-26T20:41:58.803Z,18.50
2022-08-26T20:44:25.936Z,18.50
2022-08-26T20:46:53.141Z,18.50
2022-08-26T20:49:22.476Z,18.30
2022-08-26T20:51:52.903Z,18.30
2022-08-26T20:54:28.393Z,18.20
2022-08-26T20:56:58.472Z,18.20
2022-08-26T20:59:29.413Z,18.20
2022-08-26T21:01:56.445Z,18.20
2022-08-26T21:04:26.758Z,18.10
2022-08-26T21:06:54.726Z,18.20
2022-08-26T21:09:24.497Z,18.10
2022-08-26T21:11:53.133Z,18.00
2022-08-26T21:14:20.563Z,18.00
2022-08-26T21:16:47.787Z,18.00
2022-08-26T21:19:18.664Z,17.90
2022-08-26T21:21:48.337Z,17.90
2022-08-26T21:24:15.839Z,17.90
2022-08-26T21:26:43.220Z,17.80
2022-08-26T21:29:10.144Z,17.80
2022-08-26T21:31:42.161Z,17.80
2022-08-26T21:34:13.316Z,17.80
2022-08-26T21:36:40.078Z,17.80
2022-08-26T21:39:11.235Z,17.90
2022-08-26T21:41:42.671Z,17.70
2022-08-26T21:44:15.675Z,17.70
2022-08-26T21:46:44.321Z,17.70
2022-08-26T21:49:16.163Z,17.60
2022-08-26T21:51:49.435Z,17.70
2022-08-26T21:54:17.936Z,17.60
2022-08-26T21:56:47.018Z,17.60
2022-08-26T21:59:17.746Z,17.70
2022-08-26T22:01:44.717Z,17.80
2022-08-26T22:04:11.513Z,17.90
2022-08-26T22:06:53.426Z,17.90
2022-08-26T22:09:37.126Z,18.00
2022-08-26T22:12:13.651Z,18.00
2022-08-26T22:14:40.365Z,17.90
2022-08-26T22:17:07.116Z,17.90
2022-08-26T22:19:34.460Z,17.90
2022-08-26T22:22:13.295Z,17.90
2022-08-26T22:24:40.059Z,18.00
2022-08-26T22:27:06.878Z,18.00
2022-08-26T22:29:34.204Z,18.00
2022-08-26T22:32:02.102Z,18.10
2022-08-26T22:34:28.843Z,18.10
2022-08-26T22:36:55.957Z,17.90
2022-08-26T22:39:25.920Z,18.00
2022-08-26T22:41:54.158Z,18.00
2022-08-26T22:44:22.092Z,18.20
2022-08-26T22:46:53.950Z,18.30
2022-08-26T22:49:21.442Z,18.30
2022-08-26T22:51:48.889Z,18.30
2022-08-26T22:54:16.968Z,18.20
2022-08-26T22:56:46.892Z,18.20
2022-08-26T22:59:13.917Z,18.20
2022-08-26T23:01:43.204Z,18.20
2022-08-26T23:04:11.027Z,18.20
2022-08-26T23:06:43.325Z,18.30
2022-08-26T23:09:24.655Z,18.40
2022-08-26T23:11:51.421Z,18.30
2022-08-26T23:14:18.911Z,18.40
2022-08-26T23:16:47.283Z,18.50
2022-08-26T23:19:17.527Z,18.50
2022-08-26T23:21:45.056Z,18.60
2022-08-26T23:24:12.778Z,18.60
2022-08-26T23:26:41.681Z,18.70
2022-08-26T23:29:12.172Z,18.80
2022-08-26T23:31:43.101Z,18.80
2022-08-26T23:34:29.438Z,18.90
2022-08-26T23:36:58.865Z,18.80
2022-08-26T23:39:26.420Z,18.80
2022-08-26T23:41:53.269Z,18.80
2022-08-26T23:44:20.695Z,18.80
2022-08-26T23:46:47.505Z,18.80
2022-08-26T23:49:14.251Z,18.90
2022-08-26T23:51:59.501Z,18.80
2022-08-26T23:54:26.367Z,18.80
2022-08-26T23:56:54.214Z,18.80
2022-08-26T23:59:21.042Z,18.80
